createdAt,value
2023-03-06T00:02:53.089Z,-4.60
2023-03-06T00:07:56.126Z,-4.67
2023-03-06T00:13:04.971Z,-4.71
2023-03-06T00:18:08.565Z,-4.74
2023-03-06T00:23:12.229Z,-4.80
2023-03-06T00:28:16.001Z,-4.88
2023-03-06T00:33:19.047Z,-4.94
2023-03-06T00:38:22.254Z,-4.97
2023-03-06T00:43:25.365Z,-4.98
2023-03-06T00:48:28.367Z,-5.02
2023-03-06T00:53:31.372Z,-5.08
2023-03-06T00:58:34.380Z,-5.10
2023-03-06T01:03:37.588Z,-5.10
2023-03-06T01:08:40.700Z,-5.12
2023-03-06T01:13:44.686Z,-5.13
2023-03-06T01:18:48.067Z,-5.16
2023-03-06T01:23:51.642Z,-5.19
2023-03-06T01:28:54.657Z,-5.21
2023-03-06T01:33:57.562Z,-5.23
2023-03-06T01:39:00.578Z,-5.22
2023-03-06T01:44:03.887Z,-5.22
2023-03-06T01:49:18.680Z,-5.21
2023-03-06T01:54:26.985Z,-5.21
2023-03-06T01:59:30.709Z,-5.20
2023-03-06T02:04:35.374Z,-5.18
2023-03-06T02:09:39.095Z,-5.17
2023-03-06T02:14:42.776Z,-5.20
2023-03-06T02:20:04.678Z,-5.22
2023-03-06T02:25:32.358Z,-5.26
2023-03-06T02:30:36.234Z,-5.32
2023-03-06T02:35:40.553Z,-5.37
2023-03-06T02:40:47.420Z,-5.37
2023-03-06T02:45:52.004Z,-5.39
2023-03-06T02:50:55.027Z,-5.44
2023-03-06T02:55:57.973Z,-5.48
2023-03-06T03:01:00.971Z,-5.49
2023-03-06T03:06:06.109Z,-5.47
2023-03-06T03:11:09.554Z,-5.47
2023-03-06T03:16:15.704Z,-5.49
2023-03-06T03:21:19.527Z,-5.52
2023-03-06T03:26:22.779Z,-5.53
2023-03-06T03:31:25.997Z,-5.53
2023-03-06T03:36:29.087Z,-5.57
2023-03-06T03:41:33.665Z,-5.60
2023-03-06T03:46:36.778Z,-5.60
2023-03-06T03:51:39.845Z,-5.60
2023-03-06T03:56:44.573Z,-5.60
2023-03-06T04:01:47.517Z,-5.59
2023-03-06T04:06:50.702Z,-5.60
2023-03-06T04:11:53.714Z,-5.61
2023-03-06T04:16:56.721Z,-5.59
2023-03-06T04:21:59.754Z,-5.58
2023-03-06T04:27:02.625Z,-5.60
2023-03-06T04:32:06.018Z,-5.62
2023-03-06T04:37:23.620Z,-5.64
2023-03-06T04:42:26.705Z,-5.65
2023-03-06T04:47:29.709Z,-5.62
2023-03-06T04:52:32.825Z,-5.62
2023-03-06T04:57:36.897Z,-5.64
2023-03-06T05:02:39.853Z,-5.64
2023-03-06T05:07:43.267Z,-5.66
2023-03-06T05:12:46.400Z,-5.66
2023-03-06T05:17:49.585Z,-5.68
2023-03-06T05:22:52.699Z,-5.69
2023-03-06T05:27:55.600Z,-5.65
2023-03-06T05:32:59.706Z,-5.23
2023-03-06T05:38:02.741Z,-4.28
2023-03-06T05:43:06.982Z,-3.15
2023-03-06T05:48:13.265Z,-2.09
2023-03-06T05:53:16.281Z,-1.11
2023-03-06T05:58:19.263Z,-0.14
2023-03-06T06:03:23.090Z,0.75
2023-03-06T06:08:26.213Z,1.70
2023-03-06T06:13:29.105Z,2.51
2023-03-06T06:18:32.012Z,3.09
2023-03-06T06:23:35.631Z,3.28
2023-03-06T06:28:38.985Z,3.67
2023-03-06T06:33:42.363Z,4.31
2023-03-06T06:38:45.579Z,4.87
2023-03-06T06:43:48.582Z,5.26
2023-03-06T06:48:54.864Z,5.21
2023-03-06T06:53:58.650Z,5.04
2023-03-06T06:59:15.770Z,5.41
2023-03-06T07:04:20.367Z,5.96
2023-03-06T07:09:23.858Z,6.45
2023-03-06T07:14:27.505Z,6.73
2023-03-06T07:19:30.613Z,7.10
2023-03-06T07:24:33.724Z,7.49
2023-03-06T07:29:36.839Z,7.94
2023-03-06T07:34:39.944Z,7.94
2023-03-06T07:39:43.464Z,7.95
2023-03-06T07:44:46.573Z,8.08
2023-03-06T07:49:49.578Z,8.07
2023-03-06T07:54:52.483Z,8.08
2023-03-06T07:59:55.546Z,7.99
2023-03-06T08:04:58.494Z,8.03
2023-03-06T08:10:01.609Z,8.17
2023-03-06T08:15:05.483Z,8.19
2023-03-06T08:20:10.511Z,8.03
2023-03-06T08:25:13.696Z,8.02
2023-03-06T08:30:17.187Z,8.37
2023-03-06T08:35:20.382Z,8.45
2023-03-06T08:40:23.529Z,8.14
2023-03-06T08:45:26.652Z,7.09
2023-03-06T08:50:29.743Z,6.03
2023-03-06T08:55:37.258Z,5.20
2023-03-06T09:00:40.445Z,4.61
2023-03-06T09:05:43.985Z,4.17
2023-03-06T09:10:48.559Z,3.82
2023-03-06T09:15:51.636Z,3.59
2023-03-06T09:20:54.747Z,3.48
2023-03-06T09:25:59.698Z,3.57
2023-03-06T09:31:17.313Z,3.61
2023-03-06T09:36:22.817Z,3.69
2023-03-06T09:41:29.412Z,3.79
2023-03-06T09:46:46.136Z,3.94
2023-03-06T09:52:28.357Z,3.95
2023-03-06T09:57:35.864Z,3.87
2023-03-06T10:02:46.388Z,3.86
2023-03-06T10:07:57.246Z,4.10
2023-03-06T10:13:06.493Z,4.39
2023-03-06T10:18:11.916Z,4.46
2023-03-06T10:23:27.080Z,4.64
2023-03-06T10:28:41.223Z,4.70
2023-03-06T10:33:57.436Z,4.66
2023-03-06T10:39:04.948Z,4.71
2023-03-06T10:44:09.501Z,4.80
2023-03-06T10:49:35.947Z,4.80
2023-03-06T10:54:42.720Z,4.70
2023-03-06T11:00:25.891Z,4.75
2023-03-06T11:05:28.792Z,4.88
2023-03-06T11:10:32.314Z,5.00
2023-03-06T11:15:35.877Z,5.14
2023-03-06T11:20:52.558Z,5.18
2023-03-06T11:26:02.660Z,5.20
2023-03-06T11:31:17.283Z,5.15
2023-03-06T11:36:28.099Z,4.94
2023-03-06T11:42:01.624Z,4.72
2023-03-06T11:47:23.323Z,4.52
2023-03-06T11:52:54.834Z,4.48
2023-03-06T11:58:16.581Z,4.49
2023-03-06T12:03:25.339Z,4.39
2023-03-06T12:08:40.516Z,4.24
2023-03-06T12:13:59.453Z,4.21
2023-03-06T12:19:36.501Z,4.35
2023-03-06T12:25:06.957Z,4.42
2023-03-06T12:30:35.454Z,4.45
2023-03-06T12:35:55.171Z,4.23
2023-03-06T12:41:26.321Z,4.05
2023-03-06T12:46:30.762Z,3.95
2023-03-06T12:51:34.702Z,3.91
2023-03-06T12:56:39.816Z,4.28
2023-03-06T13:02:08.512Z,4.59
2023-03-06T13:07:39.111Z,4.60
2023-03-06T13:13:08.743Z,4.42
2023-03-06T13:18:24.243Z,4.16
2023-03-06T13:23:33.326Z,4.04
2023-03-06T13:28:50.206Z,4.01
2023-03-06T13:33:54.859Z,3.84
2023-03-06T13:39:09.732Z,3.65
2023-03-06T13:44:24.680Z,3.49
2023-03-06T13:49:28.552Z,3.31
2023-03-06T13:54:56.658Z,3.20
2023-03-06T14:00:51.064Z,3.10
2023-03-06T14:05:54.388Z,2.94
2023-03-06T14:11:27.497Z,2.72
2023-03-06T14:16:49.364Z,2.53
2023-03-06T14:21:56.953Z,2.33
2023-03-06T14:26:59.960Z,2.22
2023-03-06T14:32:06.190Z,2.12
2023-03-06T14:37:20.948Z,2.05
2023-03-06T14:42:27.311Z,1.96
2023-03-06T14:47:32.988Z,1.90
2023-03-06T14:52:36.316Z,1.93
2023-03-06T14:57:39.609Z,1.90
2023-03-06T15:02:43.031Z,1.80
2023-03-06T15:07:46.520Z,1.65
2023-03-06T15:12:49.553Z,1.47
2023-03-06T15:17:53.069Z,1.25
2023-03-06T15:22:56.069Z,1.01
2023-03-06T15:28:43.525Z,0.81
2023-03-06T15:34:09.364Z,0.62
2023-03-06T15:39:41.251Z,0.44
2023-03-06T15:44:48.095Z,0.25
2023-03-06T15:49:53.298Z,0.05
2023-03-06T15:54:56.316Z,-0.14
2023-03-06T16:00:01.560Z,-0.32
2023-03-06T16:05:15.027Z,-0.51
2023-03-06T16:10:27.455Z,-0.70
2023-03-06T16:15:33.938Z,-0.89
2023-03-06T16:20:36.936Z,-1.05
2023-03-06T16:25:42.219Z,-1.20
2023-03-06T16:30:46.030Z,-1.34
2023-03-06T16:35:50.089Z,-1.45
2023-03-06T16:40:53.055Z,-1.53
2023-03-06T16:45:56.658Z,-1.57
2023-03-06T16:51:00.124Z,-1.61
2023-03-06T16:56:03.106Z,-1.63
2023-03-06T17:01:07.337Z,-1.67
2023-03-06T17:06:17.939Z,-1.75
2023-03-06T17:11:20.929Z,-1.87
2023-03-06T17:16:23.938Z,-1.98
2023-03-06T17:21:27.161Z,-2.07
2023-03-06T17:26:30.359Z,-2.15
2023-03-06T17:31:33.394Z,-2.25
2023-03-06T17:36:36.375Z,-2.36
2023-03-06T17:41:39.584Z,-2.45
2023-03-06T17:46:43.981Z,-2.51
2023-03-06T17:51:47.139Z,-2.56
2023-03-06T17:56:50.253Z,-2.61
2023-03-06T18:01:59.745Z,-2.66
2023-03-06T18:07:02.770Z,-2.69
2023-03-06T18:12:05.861Z,-2.70
2023-03-06T18:17:09.227Z,-2.69
2023-03-06T18:22:12.137Z,-2.67
2023-03-06T18:27:15.136Z,-2.66
2023-03-06T18:32:19.254Z,-2.64
2023-03-06T18:37:22.805Z,-2.63
2023-03-06T18:42:26.829Z,-2.65
2023-03-06T18:47:30.036Z,-2.67
2023-03-06T18:52:34.953Z,-2.71
2023-03-06T18:57:38.437Z,-2.69
2023-03-06T19:02:41.506Z,-2.67
2023-03-06T19:07:44.551Z,-2.66
2023-03-06T19:12:47.729Z,-2.67
2023-03-06T19:17:51.662Z,-2.73
2023-03-06T19:22:54.876Z,-2.82
2023-03-06T19:27:58.099Z,-2.95
2023-03-06T19:33:01.196Z,-3.09
2023-03-06T19:38:04.308Z,-3.20
2023-03-06T19:43:07.215Z,-3.27
2023-03-06T19:48:12.512Z,-3.32
2023-03-06T19:53:16.316Z,-3.39
2023-03-06T19:58:19.517Z,-3.50
2023-03-06T20:03:22.613Z,-3.63
2023-03-06T20:08:25.742Z,-3.72
2023-03-06T20:13:28.930Z,-3.76
2023-03-06T20:18:32.050Z,-3.77
2023-03-06T20:23:35.351Z,-3.78
2023-03-06T20:28:40.602Z,-3.79
2023-03-06T20:33:48.942Z,-3.77
2023-03-06T20:38:52.046Z,-3.72
2023-03-06T20:43:55.156Z,-3.68
2023-03-06T20:48:58.463Z,-3.66
2023-03-06T20:54:02.348Z,-3.67
2023-03-06T20:59:06.298Z,-3.66
2023-03-06T21:04:10.715Z,-3.63
2023-03-06T21:09:15.922Z,-3.61
2023-03-06T21:14:18.829Z,-3.59
2023-03-06T21:19:21.828Z,-3.62
2023-03-06T21:24:24.742Z,-3.67
2023-03-06T21:29:27.746Z,-3.75
2023-03-06T21:34:30.650Z,-3.78
2023-03-06T21:39:33.977Z,-3.78
2023-03-06T21:44:37.085Z,-3.81
2023-03-06T21:49:40.302Z,-3.86
2023-03-06T21:54:43.401Z,-3.91
2023-03-06T21:59:46.603Z,-3.94
2023-03-06T22:04:53.381Z,-4.00
2023-03-06T22:09:56.415Z,-4.09
2023-03-06T22:14:59.516Z,-4.20
2023-03-06T22:20:02.521Z,-4.26
2023-03-06T22:25:06.129Z,-4.30
2023-03-06T22:30:09.753Z,-4.34
2023-03-06T22:35:12.766Z,-4.40
2023-03-06T22:40:16.567Z,-4.50
2023-03-06T22:45:19.589Z,-4.59
2023-03-06T22:50:22.702Z,-4.62
2023-03-06T22:55:26.320Z,-4.63
2023-03-06T23:00:29.324Z,-4.66
2023-03-06T23:05:32.338Z,-4.70
2023-03-06T23:10:39.202Z,-4.76
2023-03-06T23:15:42.496Z,-4.81
2023-03-06T23:20:45.657Z,-4.82
2023-03-06T23:25:49.161Z,-4.83
2023-03-06T23:30:52.610Z,-4.85
2023-03-06T23:35:55.628Z,-4.87
2023-03-06T23:41:03.196Z,-4.93
2023-03-06T23:46:07.473Z,-4.97
2023-03-06T23:51:19.235Z,-5.00
2023-03-06T23:56:22.636Z,-5.00
